sensor_id;sensor_type;location;lat;lon;timestamp;P1;durP1;ratioP1;P2;durP2;ratioP2
33347;SDS011;19707;51.158;17.124;2024-02-15T00:02:53;13.10;;;8.90;;
33347;SDS011;19707;51.158;17.124;2024-02-15T00:05:56;15.70;;;9.30;;
33347;SDS011;19707;51.158;17.124;2024-02-15T00:08:58;11.60;;;7.10;;
33347;SDS011;19707;51.158;17.124;2024-02-15T00:12:00;14.70;;;8.80;;
33347;SDS011;19707;51.158;17.124;2024-02-15T00:15:02;12.00;;;7.40;;
33347;SDS011;19707;51.158;17.124;2024-02-15T00:18:04;13.60;;;7.80;;
33347;SDS011;19707;51.158;17.124;2024-02-15T00:21:06;15.00;;;9.20;;
33347;SDS011;19707;51.158;17.124;2024-02-15T00:24:09;18.20;;;11.40;;
33347;SDS011;19707;51.158;17.124;2024-02-15T00:27:12;19.00;;;12.00;;
33347;SDS011;19707;51.158;17.124;2024-02-15T00:30:14;20.80;;;11.90;;
33347;SDS011;19707;51.158;17.124;2024-02-15T00:33:18;20.70;;;10.40;;
33347;SDS011;19707;51.158;17.124;2024-02-15T00:36:20;20.60;;;11.00;;
33347;SDS011;19707;51.158;17.124;2024-02-15T00:39:22;21.90;;;11.30;;
33347;SDS011;19707;51.158;17.124;2024-02-15T00:42:24;20.80;;;12.90;;
33347;SDS011;19707;51.158;17.124;2024-02-15T00:45:27;22.10;;;11.60;;
33347;SDS011;19707;51.158;17.124;2024-02-15T00:48:29;21.70;;;12.00;;
33347;SDS011;19707;51.158;17.124;2024-02-15T00:51:34;20.30;;;11.40;;
33347;SDS011;19707;51.158;17.124;2024-02-15T00:54:37;22.60;;;12.30;;
33347;SDS011;19707;51.158;17.124;2024-02-15T00:57:39;23.70;;;12.90;;
33347;SDS011;19707;51.158;17.124;2024-02-15T01:00:44;18.50;;;11.60;;
33347;SDS011;19707;51.158;17.124;2024-02-15T01:03:46;19.70;;;13.10;;
33347;SDS011;19707;51.158;17.124;2024-02-15T01:06:49;18.80;;;11.10;;
33347;SDS011;19707;51.158;17.124;2024-02-15T01:09:51;22.40;;;12.70;;
33347;SDS011;19707;51.158;17.124;2024-02-15T01:12:53;20.50;;;11.20;;
33347;SDS011;19707;51.158;17.124;2024-02-15T01:15:56;18.70;;;12.00;;
33347;SDS011;19707;51.158;17.124;2024-02-15T01:18:58;21.50;;;11.90;;
33347;SDS011;19707;51.158;17.124;2024-02-15T01:22:00;19.20;;;12.80;;
33347;SDS011;19707;51.158;17.124;2024-02-15T01:25:02;19.70;;;10.70;;
33347;SDS011;19707;51.158;17.124;2024-02-15T01:28:05;19.80;;;12.60;;
33347;SDS011;19707;51.158;17.124;2024-02-15T01:31:08;20.20;;;10.90;;
33347;SDS011;19707;51.158;17.124;2024-02-15T01:34:12;18.40;;;11.20;;
33347;SDS011;19707;51.158;17.124;2024-02-15T01:37:14;20.10;;;11.90;;
33347;SDS011;19707;51.158;17.124;2024-02-15T01:40:16;16.20;;;10.10;;
33347;SDS011;19707;51.158;17.124;2024-02-15T01:43:19;17.60;;;11.40;;
33347;SDS011;19707;51.158;17.124;2024-02-15T01:46:21;18.10;;;9.60;;
33347;SDS011;19707;51.158;17.124;2024-02-15T01:49:23;15.10;;;9.80;;
33347;SDS011;19707;51.158;17.124;2024-02-15T01:52:25;18.00;;;10.80;;
33347;SDS011;19707;51.158;17.124;2024-02-15T01:55:28;18.40;;;10.10;;
33347;SDS011;19707;51.158;17.124;2024-02-15T01:58:30;18.50;;;11.90;;
33347;SDS011;19707;51.158;17.124;2024-02-15T02:01:36;17.30;;;9.70;;
33347;SDS011;19707;51.158;17.124;2024-02-15T02:04:38;17.50;;;10.70;;
33347;SDS011;19707;51.158;17.124;2024-02-15T02:07:40;17.50;;;11.50;;
33347;SDS011;19707;51.158;17.124;2024-02-15T02:10:42;14.50;;;8.80;;
33347;SDS011;19707;51.158;17.124;2024-02-15T02:13:44;15.50;;;10.30;;
33347;SDS011;19707;51.158;17.124;2024-02-15T02:16:46;17.50;;;10.70;;
33347;SDS011;19707;51.158;17.124;2024-02-15T02:19:48;20.20;;;10.00;;
33347;SDS011;19707;51.158;17.124;2024-02-15T02:22:54;16.90;;;8.90;;
33347;SDS011;19707;51.158;17.124;2024-02-15T02:26:03;16.10;;;8.90;;
33347;SDS011;19707;51.158;17.124;2024-02-15T02:29:05;16.10;;;10.10;;
33347;SDS011;19707;51.158;17.124;2024-02-15T02:32:07;17.40;;;9.30;;
33347;SDS011;19707;51.158;17.124;2024-02-15T02:35:09;16.70;;;10.60;;
33347;SDS011;19707;51.158;17.124;2024-02-15T02:38:14;16.50;;;10.20;;
33347;SDS011;19707;51.158;17.124;2024-02-15T02:41:16;15.60;;;9.20;;
33347;SDS011;19707;51.158;17.124;2024-02-15T02:44:21;15.10;;;8.60;;
33347;SDS011;19707;51.158;17.124;2024-02-15T02:47:23;15.40;;;10.60;;
33347;SDS011;19707;51.158;17.124;2024-02-15T02:50:25;15.10;;;9.40;;
33347;SDS011;19707;51.158;17.124;2024-02-15T02:53:28;16.10;;;9.40;;
33347;SDS011;19707;51.158;17.124;2024-02-15T02:56:31;15.50;;;8.80;;
33347;SDS011;19707;51.158;17.124;2024-02-15T02:59:34;14.60;;;8.50;;
33347;SDS011;19707;51.158;17.124;2024-02-15T03:02:37;12.90;;;8.80;;
33347;SDS011;19707;51.158;17.124;2024-02-15T03:05:39;14.00;;;8.20;;
33347;SDS011;19707;51.158;17.124;2024-02-15T03:08:42;14.30;;;8.70;;
33347;SDS011;19707;51.158;17.124;2024-02-15T03:11:44;11.60;;;7.80;;
33347;SDS011;19707;51.158;17.124;2024-02-15T03:14:46;13.10;;;7.80;;
33347;SDS011;19707;51.158;17.124;2024-02-15T03:17:48;12.40;;;9.00;;
33347;SDS011;19707;51.158;17.124;2024-02-15T03:20:51;12.70;;;8.70;;
33347;SDS011;19707;51.158;17.124;2024-02-15T03:23:53;12.20;;;8.40;;
33347;SDS011;19707;51.158;17.124;2024-02-15T03:26:56;10.40;;;7.60;;
33347;SDS011;19707;51.158;17.124;2024-02-15T03:29:58;13.40;;;8.10;;
33347;SDS011;19707;51.158;17.124;2024-02-15T03:33:01;14.60;;;9.50;;
33347;SDS011;19707;51.158;17.124;2024-02-15T03:39:12;14.50;;;8.80;;
33347;SDS011;19707;51.158;17.124;2024-02-15T03:45:17;12.90;;;7.90;;
33347;SDS011;19707;51.158;17.124;2024-02-15T03:48:19;12.10;;;8.40;;
33347;SDS011;19707;51.158;17.124;2024-02-15T03:51:21;14.30;;;9.40;;
33347;SDS011;19707;51.158;17.124;2024-02-15T03:54:27;12.30;;;9.00;;
33347;SDS011;19707;51.158;17.124;2024-02-15T03:57:31;12.70;;;8.10;;
33347;SDS011;19707;51.158;17.124;2024-02-15T04:00:35;9.20;;;7.00;;
33347;SDS011;19707;51.158;17.124;2024-02-15T04:03:37;11.40;;;8.00;;
33347;SDS011;19707;51.158;17.124;2024-02-15T04:06:39;15.20;;;8.90;;
33347;SDS011;19707;51.158;17.124;2024-02-15T04:09:43;13.10;;;8.80;;
33347;SDS011;19707;51.158;17.124;2024-02-15T04:12:45;11.50;;;6.80;;
33347;SDS011;19707;51.158;17.124;2024-02-15T04:15:48;10.30;;;8.00;;
33347;SDS011;19707;51.158;17.124;2024-02-15T04:18:52;13.90;;;8.20;;
33347;SDS011;19707;51.158;17.124;2024-02-15T04:21:54;14.10;;;10.00;;
33347;SDS011;19707;51.158;17.124;2024-02-15T04:25:00;13.70;;;9.70;;
33347;SDS011;19707;51.158;17.124;2024-02-15T04:28:02;15.00;;;9.60;;
33347;SDS011;19707;51.158;17.124;2024-02-15T04:31:05;12.90;;;7.70;;
33347;SDS011;19707;51.158;17.124;2024-02-15T04:34:10;13.40;;;8.70;;
33347;SDS011;19707;51.158;17.124;2024-02-15T04:37:13;10.80;;;8.10;;
33347;SDS011;19707;51.158;17.124;2024-02-15T04:40:15;13.60;;;8.70;;
33347;SDS011;19707;51.158;17.124;2024-02-15T04:43:20;11.50;;;7.70;;
33347;SDS011;19707;51.158;17.124;2024-02-15T04:46:22;10.40;;;7.20;;
33347;SDS011;19707;51.158;17.124;2024-02-15T04:49:24;13.10;;;8.20;;
33347;SDS011;19707;51.158;17.124;2024-02-15T04:52:26;10.40;;;7.20;;
33347;SDS011;19707;51.158;17.124;2024-02-15T04:55:28;13.80;;;8.50;;
33347;SDS011;19707;51.158;17.124;2024-02-15T04:58:32;11.00;;;7.60;;
33347;SDS011;19707;51.158;17.124;2024-02-15T05:01:38;15.30;;;7.80;;
33347;SDS011;19707;51.158;17.124;2024-02-15T05:04:41;12.90;;;8.50;;
33347;SDS011;19707;51.158;17.124;2024-02-15T05:07:44;12.30;;;7.80;;
33347;SDS011;19707;51.158;17.124;2024-02-15T05:10:46;13.00;;;8.50;;
33347;SDS011;19707;51.158;17.124;2024-02-15T05:13:48;10.70;;;8.70;;
33347;SDS011;19707;51.158;17.124;2024-02-15T05:16:53;12.90;;;8.20;;
33347;SDS011;19707;51.158;17.124;2024-02-15T05:19:55;10.10;;;7.70;;
33347;SDS011;19707;51.158;17.124;2024-02-15T05:26:02;11.60;;;7.20;;
33347;SDS011;19707;51.158;17.124;2024-02-15T05:29:05;9.60;;;6.90;;
33347;SDS011;19707;51.158;17.124;2024-02-15T05:32:06;10.70;;;7.30;;
33347;SDS011;19707;51.158;17.124;2024-02-15T05:35:09;14.10;;;9.30;;
33347;SDS011;19707;51.158;17.124;2024-02-15T05:38:12;11.60;;;9.10;;
33347;SDS011;19707;51.158;17.124;2024-02-15T05:41:17;12.60;;;9.70;;
33347;SDS011;19707;51.158;17.124;2024-02-15T05:44:21;12.10;;;9.20;;
33347;SDS011;19707;51.158;17.124;2024-02-15T05:47:23;12.40;;;7.90;;
33347;SDS011;19707;51.158;17.124;2024-02-15T05:50:25;13.70;;;9.20;;
33347;SDS011;19707;51.158;17.124;2024-02-15T05:53:31;11.10;;;8.10;;
33347;SDS011;19707;51.158;17.124;2024-02-15T05:56:36;11.50;;;8.10;;
33347;SDS011;19707;51.158;17.124;2024-02-15T05:59:38;10.20;;;8.00;;
33347;SDS011;19707;51.158;17.124;2024-02-15T06:02:42;12.00;;;8.60;;
33347;SDS011;19707;51.158;17.124;2024-02-15T06:05:44;12.90;;;8.10;;
33347;SDS011;19707;51.158;17.124;2024-02-15T06:08:46;15.10;;;8.80;;
33347;SDS011;19707;51.158;17.124;2024-02-15T06:11:49;14.00;;;10.70;;
33347;SDS011;19707;51.158;17.124;2024-02-15T06:14:53;12.70;;;9.10;;
33347;SDS011;19707;51.158;17.124;2024-02-15T06:17:55;14.40;;;9.60;;
33347;SDS011;19707;51.158;17.124;2024-02-15T06:20:59;11.80;;;8.70;;
33347;SDS011;19707;51.158;17.124;2024-02-15T06:24:02;12.50;;;9.50;;
33347;SDS011;19707;51.158;17.124;2024-02-15T06:27:05;15.80;;;10.50;;
33347;SDS011;19707;51.158;17.124;2024-02-15T06:30:08;13.30;;;8.70;;
33347;SDS011;19707;51.158;17.124;2024-02-15T06:33:30;15.10;;;9.30;;
33347;SDS011;19707;51.158;17.124;2024-02-15T06:36:54;14.20;;;8.70;;
33347;SDS011;19707;51.158;17.124;2024-02-15T06:40:16;14.70;;;10.70;;
33347;SDS011;19707;51.158;17.124;2024-02-15T06:43:19;12.80;;;8.80;;
33347;SDS011;19707;51.158;17.124;2024-02-15T06:46:21;14.40;;;10.20;;
33347;SDS011;19707;51.158;17.124;2024-02-15T06:49:23;11.20;;;9.00;;
33347;SDS011;19707;51.158;17.124;2024-02-15T06:55:30;16.30;;;9.50;;
33347;SDS011;19707;51.158;17.124;2024-02-15T06:58:32;13.10;;;9.20;;
33347;SDS011;19707;51.158;17.124;2024-02-15T07:01:34;15.10;;;9.70;;
33347;SDS011;19707;51.158;17.124;2024-02-15T07:04:37;14.00;;;10.00;;
33347;SDS011;19707;51.158;17.124;2024-02-15T07:07:39;13.30;;;9.60;;
33347;SDS011;19707;51.158;17.124;2024-02-15T07:10:41;13.70;;;8.80;;
33347;SDS011;19707;51.158;17.124;2024-02-15T07:13:43;12.00;;;9.20;;
33347;SDS011;19707;51.158;17.124;2024-02-15T07:16:46;13.20;;;9.20;;
33347;SDS011;19707;51.158;17.124;2024-02-15T07:19:49;10.90;;;9.40;;
33347;SDS011;19707;51.158;17.124;2024-02-15T07:22:51;15.00;;;8.80;;
33347;SDS011;19707;51.158;17.124;2024-02-15T07:25:53;13.80;;;8.40;;
33347;SDS011;19707;51.158;17.124;2024-02-15T07:28:55;11.50;;;9.10;;
33347;SDS011;19707;51.158;17.124;2024-02-15T07:32:02;10.70;;;7.90;;
33347;SDS011;19707;51.158;17.124;2024-02-15T07:35:05;13.80;;;9.70;;
33347;SDS011;19707;51.158;17.124;2024-02-15T07:38:09;12.40;;;9.30;;
33347;SDS011;19707;51.158;17.124;2024-02-15T07:41:12;12.70;;;10.10;;
33347;SDS011;19707;51.158;17.124;2024-02-15T07:44:14;13.70;;;10.50;;
33347;SDS011;19707;51.158;17.124;2024-02-15T07:47:18;16.00;;;10.60;;
33347;SDS011;19707;51.158;17.124;2024-02-15T07:50:22;16.80;;;9.90;;
33347;SDS011;19707;51.158;17.124;2024-02-15T07:53:24;14.60;;;10.20;;
33347;SDS011;19707;51.158;17.124;2024-02-15T07:56:26;14.60;;;9.70;;
33347;SDS011;19707;51.158;17.124;2024-02-15T07:59:29;12.40;;;9.10;;
33347;SDS011;19707;51.158;17.124;2024-02-15T08:02:31;10.80;;;7.50;;
33347;SDS011;19707;51.158;17.124;2024-02-15T08:05:34;12.20;;;8.60;;
33347;SDS011;19707;51.158;17.124;2024-02-15T08:08:37;13.90;;;9.00;;
33347;SDS011;19707;51.158;17.124;2024-02-15T08:11:39;13.10;;;9.30;;
33347;SDS011;19707;51.158;17.124;2024-02-15T08:14:42;12.00;;;9.50;;
33347;SDS011;19707;51.158;17.124;2024-02-15T08:17:45;13.70;;;9.10;;
33347;SDS011;19707;51.158;17.124;2024-02-15T08:20:51;13.30;;;9.80;;
33347;SDS011;19707;51.158;17.124;2024-02-15T08:23:53;11.60;;;8.30;;
33347;SDS011;19707;51.158;17.124;2024-02-15T08:26:56;12.80;;;7.90;;
33347;SDS011;19707;51.158;17.124;2024-02-15T08:30:00;11.70;;;8.60;;
33347;SDS011;19707;51.158;17.124;2024-02-15T08:33:04;13.10;;;8.50;;
33347;SDS011;19707;51.158;17.124;2024-02-15T08:36:07;14.20;;;9.70;;
33347;SDS011;19707;51.158;17.124;2024-02-15T08:39:12;13.40;;;9.30;;
33347;SDS011;19707;51.158;17.124;2024-02-15T08:42:14;12.40;;;8.60;;
33347;SDS011;19707;51.158;17.124;2024-02-15T08:45:20;14.10;;;9.00;;
33347;SDS011;19707;51.158;17.124;2024-02-15T08:48:22;15.10;;;10.00;;
33347;SDS011;19707;51.158;17.124;2024-02-15T08:51:25;14.80;;;9.00;;
33347;SDS011;19707;51.158;17.124;2024-02-15T08:54:27;13.50;;;8.80;;
33347;SDS011;19707;51.158;17.124;2024-02-15T08:57:29;15.30;;;9.20;;
33347;SDS011;19707;51.158;17.124;2024-02-15T09:00:33;12.80;;;8.80;;
33347;SDS011;19707;51.158;17.124;2024-02-15T09:03:35;11.20;;;8.40;;
33347;SDS011;19707;51.158;17.124;2024-02-15T09:06:38;12.70;;;9.50;;
33347;SDS011;19707;51.158;17.124;2024-02-15T09:09:40;15.20;;;7.70;;
33347;SDS011;19707;51.158;17.124;2024-02-15T09:12:43;13.80;;;7.80;;
33347;SDS011;19707;51.158;17.124;2024-02-15T09:15:48;12.50;;;7.50;;
33347;SDS011;19707;51.158;17.124;2024-02-15T09:18:51;12.40;;;8.10;;
33347;SDS011;19707;51.158;17.124;2024-02-15T09:21:53;15.50;;;9.40;;
33347;SDS011;19707;51.158;17.124;2024-02-15T09:24:58;11.30;;;8.00;;
33347;SDS011;19707;51.158;17.124;2024-02-15T09:28:00;11.20;;;7.40;;
33347;SDS011;19707;51.158;17.124;2024-02-15T09:31:02;11.90;;;8.50;;
33347;SDS011;19707;51.158;17.124;2024-02-15T09:34:04;11.90;;;8.50;;
33347;SDS011;19707;51.158;17.124;2024-02-15T09:37:08;12.80;;;8.30;;
33347;SDS011;19707;51.158;17.124;2024-02-15T09:40:11;10.70;;;8.30;;
33347;SDS011;19707;51.158;17.124;2024-02-15T09:43:14;12.10;;;9.20;;
33347;SDS011;19707;51.158;17.124;2024-02-15T09:46:17;11.60;;;8.60;;
33347;SDS011;19707;51.158;17.124;2024-02-15T09:49:19;11.60;;;8.60;;
33347;SDS011;19707;51.158;17.124;2024-02-15T09:52:22;10.60;;;7.60;;
33347;SDS011;19707;51.158;17.124;2024-02-15T09:55:26;12.80;;;8.10;;
33347;SDS011;19707;51.158;17.124;2024-02-15T09:58:28;14.70;;;9.10;;
33347;SDS011;19707;51.158;17.124;2024-02-15T10:01:31;12.70;;;8.00;;
33347;SDS011;19707;51.158;17.124;2024-02-15T10:04:34;10.80;;;8.00;;
33347;SDS011;19707;51.158;17.124;2024-02-15T10:07:40;11.70;;;6.60;;
33347;SDS011;19707;51.158;17.124;2024-02-15T10:10:45;12.00;;;8.20;;
33347;SDS011;19707;51.158;17.124;2024-02-15T10:13:47;13.20;;;8.60;;
33347;SDS011;19707;51.158;17.124;2024-02-15T10:16:50;14.00;;;7.70;;
33347;SDS011;19707;51.158;17.124;2024-02-15T10:20:05;11.30;;;8.50;;
33347;SDS011;19707;51.158;17.124;2024-02-15T10:26:18;29.40;;;22.10;;
33347;SDS011;19707;51.158;17.124;2024-02-15T10:29:21;16.50;;;13.00;;
33347;SDS011;19707;51.158;17.124;2024-02-15T10:32:24;13.70;;;10.60;;
33347;SDS011;19707;51.158;17.124;2024-02-15T10:35:36;12.70;;;8.20;;
33347;SDS011;19707;51.158;17.124;2024-02-15T10:38:38;12.30;;;10.00;;
33347;SDS011;19707;51.158;17.124;2024-02-15T10:41:40;17.90;;;13.40;;
33347;SDS011;19707;51.158;17.124;2024-02-15T10:44:43;17.10;;;12.00;;
33347;SDS011;19707;51.158;17.124;2024-02-15T10:47:47;17.50;;;14.20;;
33347;SDS011;19707;51.158;17.124;2024-02-15T10:50:52;16.90;;;10.80;;
33347;SDS011;19707;51.158;17.124;2024-02-15T10:54:01;16.70;;;12.30;;
33347;SDS011;19707;51.158;17.124;2024-02-15T10:57:08;16.00;;;10.70;;
33347;SDS011;19707;51.158;17.124;2024-02-15T11:00:11;15.70;;;9.10;;
33347;SDS011;19707;51.158;17.124;2024-02-15T11:03:24;14.20;;;7.40;;
33347;SDS011;19707;51.158;17.124;2024-02-15T11:06:27;17.10;;;9.70;;
33347;SDS011;19707;51.158;17.124;2024-02-15T11:09:31;10.70;;;7.70;;
33347;SDS011;19707;51.158;17.124;2024-02-15T11:12:34;11.50;;;7.60;;
33347;SDS011;19707;51.158;17.124;2024-02-15T11:15:40;11.90;;;8.10;;
33347;SDS011;19707;51.158;17.124;2024-02-15T11:18:55;10.80;;;6.50;;
33347;SDS011;19707;51.158;17.124;2024-02-15T11:22:15;11.10;;;8.50;;
33347;SDS011;19707;51.158;17.124;2024-02-15T11:25:17;12.10;;;9.90;;
33347;SDS011;19707;51.158;17.124;2024-02-15T11:28:36;11.20;;;6.80;;
33347;SDS011;19707;51.158;17.124;2024-02-15T11:31:52;11.50;;;6.90;;
33347;SDS011;19707;51.158;17.124;2024-02-15T11:35:02;9.70;;;6.20;;
33347;SDS011;19707;51.158;17.124;2024-02-15T11:38:27;13.30;;;8.30;;
33347;SDS011;19707;51.158;17.124;2024-02-15T11:41:29;10.00;;;6.50;;
33347;SDS011;19707;51.158;17.124;2024-02-15T11:44:31;9.60;;;5.40;;
33347;SDS011;19707;51.158;17.124;2024-02-15T11:47:36;10.20;;;6.30;;
33347;SDS011;19707;51.158;17.124;2024-02-15T11:50:40;9.70;;;4.90;;
33347;SDS011;19707;51.158;17.124;2024-02-15T11:53:43;9.30;;;5.80;;
33347;SDS011;19707;51.158;17.124;2024-02-15T11:56:48;10.30;;;6.10;;
33347;SDS011;19707;51.158;17.124;2024-02-15T11:59:56;8.10;;;5.90;;
33347;SDS011;19707;51.158;17.124;2024-02-15T12:03:17;7.60;;;5.00;;
33347;SDS011;19707;51.158;17.124;2024-02-15T12:06:38;15.10;;;12.20;;
33347;SDS011;19707;51.158;17.124;2024-02-15T12:09:59;8.40;;;5.20;;
33347;SDS011;19707;51.158;17.124;2024-02-15T12:13:20;8.60;;;6.60;;
33347;SDS011;19707;51.158;17.124;2024-02-15T12:16:41;11.00;;;5.40;;
33347;SDS011;19707;51.158;17.124;2024-02-15T12:20:03;9.70;;;4.90;;
33347;SDS011;19707;51.158;17.124;2024-02-15T12:23:12;6.10;;;3.30;;
33347;SDS011;19707;51.158;17.124;2024-02-15T12:26:19;6.40;;;3.80;;
33347;SDS011;19707;51.158;17.124;2024-02-15T12:29:21;8.10;;;3.80;;
33347;SDS011;19707;51.158;17.124;2024-02-15T12:32:24;7.60;;;4.10;;
33347;SDS011;19707;51.158;17.124;2024-02-15T12:35:27;4.40;;;3.50;;
33347;SDS011;19707;51.158;17.124;2024-02-15T12:38:29;6.60;;;3.80;;
33347;SDS011;19707;51.158;17.124;2024-02-15T12:41:32;6.00;;;5.20;;
33347;SDS011;19707;51.158;17.124;2024-02-15T12:44:34;8.40;;;6.70;;
33347;SDS011;19707;51.158;17.124;2024-02-15T12:47:37;6.20;;;5.40;;
33347;SDS011;19707;51.158;17.124;2024-02-15T12:50:39;7.10;;;4.70;;
33347;SDS011;19707;51.158;17.124;2024-02-15T12:53:42;6.30;;;3.80;;
33347;SDS011;19707;51.158;17.124;2024-02-15T12:56:44;12.20;;;8.80;;
33347;SDS011;19707;51.158;17.124;2024-02-15T12:59:48;7.20;;;6.50;;
33347;SDS011;19707;51.158;17.124;2024-02-15T13:02:50;5.90;;;3.30;;
33347;SDS011;19707;51.158;17.124;2024-02-15T13:05:53;5.00;;;3.10;;
33347;SDS011;19707;51.158;17.124;2024-02-15T13:08:55;6.30;;;2.30;;
33347;SDS011;19707;51.158;17.124;2024-02-15T13:11:57;4.90;;;2.10;;
33347;SDS011;19707;51.158;17.124;2024-02-15T13:15:01;4.80;;;2.20;;
33347;SDS011;19707;51.158;17.124;2024-02-15T13:18:07;4.90;;;3.50;;
33347;SDS011;19707;51.158;17.124;2024-02-15T13:21:12;6.90;;;4.10;;
33347;SDS011;19707;51.158;17.124;2024-02-15T13:24:17;8.50;;;5.20;;
33347;SDS011;19707;51.158;17.124;2024-02-15T13:27:21;10.20;;;5.20;;
33347;SDS011;19707;51.158;17.124;2024-02-15T13:30:25;8.50;;;6.40;;
33347;SDS011;19707;51.158;17.124;2024-02-15T13:33:29;8.50;;;6.30;;
33347;SDS011;19707;51.158;17.124;2024-02-15T13:36:33;13.10;;;9.50;;
33347;SDS011;19707;51.158;17.124;2024-02-15T13:39:36;17.80;;;13.10;;
33347;SDS011;19707;51.158;17.124;2024-02-15T13:42:41;19.30;;;12.30;;
33347;SDS011;19707;51.158;17.124;2024-02-15T13:45:48;10.90;;;6.90;;
33347;SDS011;19707;51.158;17.124;2024-02-15T13:48:51;6.30;;;4.30;;
33347;SDS011;19707;51.158;17.124;2024-02-15T13:51:53;8.70;;;4.90;;
33347;SDS011;19707;51.158;17.124;2024-02-15T13:54:55;11.00;;;4.10;;
33347;SDS011;19707;51.158;17.124;2024-02-15T13:57:58;6.40;;;2.80;;
33347;SDS011;19707;51.158;17.124;2024-02-15T14:01:01;7.30;;;2.70;;
33347;SDS011;19707;51.158;17.124;2024-02-15T14:07:08;6.70;;;3.10;;
33347;SDS011;19707;51.158;17.124;2024-02-15T14:10:11;4.50;;;2.80;;
33347;SDS011;19707;51.158;17.124;2024-02-15T14:13:14;6.70;;;3.40;;
33347;SDS011;19707;51.158;17.124;2024-02-15T14:16:16;7.10;;;4.60;;
33347;SDS011;19707;51.158;17.124;2024-02-15T14:19:18;8.00;;;4.90;;
33347;SDS011;19707;51.158;17.124;2024-02-15T14:22:21;10.40;;;5.30;;
33347;SDS011;19707;51.158;17.124;2024-02-15T14:25:25;12.30;;;5.40;;
33347;SDS011;19707;51.158;17.124;2024-02-15T14:28:29;8.60;;;5.20;;
33347;SDS011;19707;51.158;17.124;2024-02-15T14:31:34;12.40;;;6.70;;
33347;SDS011;19707;51.158;17.124;2024-02-15T14:34:55;9.70;;;5.50;;
33347;SDS011;19707;51.158;17.124;2024-02-15T14:37:58;11.50;;;5.70;;
33347;SDS011;19707;51.158;17.124;2024-02-15T14:41:00;10.40;;;5.60;;
33347;SDS011;19707;51.158;17.124;2024-02-15T14:44:04;9.20;;;5.10;;
33347;SDS011;19707;51.158;17.124;2024-02-15T14:47:07;20.70;;;14.50;;
33347;SDS011;19707;51.158;17.124;2024-02-15T14:50:10;13.00;;;7.90;;
33347;SDS011;19707;51.158;17.124;2024-02-15T14:53:14;10.50;;;5.60;;
33347;SDS011;19707;51.158;17.124;2024-02-15T14:56:17;8.10;;;4.90;;
33347;SDS011;19707;51.158;17.124;2024-02-15T14:59:20;7.90;;;5.20;;
33347;SDS011;19707;51.158;17.124;2024-02-15T15:02:23;8.80;;;4.50;;
33347;SDS011;19707;51.158;17.124;2024-02-15T15:05:25;8.80;;;4.60;;
33347;SDS011;19707;51.158;17.124;2024-02-15T15:08:46;6.80;;;3.80;;
33347;SDS011;19707;51.158;17.124;2024-02-15T15:12:07;8.70;;;4.00;;
33347;SDS011;19707;51.158;17.124;2024-02-15T15:15:28;8.70;;;4.00;;
33347;SDS011;19707;51.158;17.124;2024-02-15T15:18:30;7.40;;;4.40;;
33347;SDS011;19707;51.158;17.124;2024-02-15T15:21:35;6.40;;;3.90;;
33347;SDS011;19707;51.158;17.124;2024-02-15T15:24:38;6.40;;;4.40;;
33347;SDS011;19707;51.158;17.124;2024-02-15T15:27:40;7.80;;;4.40;;
33347;SDS011;19707;51.158;17.124;2024-02-15T15:30:42;6.70;;;4.20;;
33347;SDS011;19707;51.158;17.124;2024-02-15T15:33:50;8.10;;;4.20;;
33347;SDS011;19707;51.158;17.124;2024-02-15T15:36:54;13.20;;;7.40;;
33347;SDS011;19707;51.158;17.124;2024-02-15T15:39:56;10.40;;;8.10;;
33347;SDS011;19707;51.158;17.124;2024-02-15T15:42:59;6.90;;;5.10;;
33347;SDS011;19707;51.158;17.124;2024-02-15T15:46:01;9.60;;;5.40;;
33347;SDS011;19707;51.158;17.124;2024-02-15T15:49:05;10.70;;;7.90;;
33347;SDS011;19707;51.158;17.124;2024-02-15T15:52:07;12.80;;;7.60;;
33347;SDS011;19707;51.158;17.124;2024-02-15T15:55:09;14.30;;;8.20;;
33347;SDS011;19707;51.158;17.124;2024-02-15T15:58:12;15.90;;;10.90;;
33347;SDS011;19707;51.158;17.124;2024-02-15T16:01:15;16.10;;;9.20;;
33347;SDS011;19707;51.158;17.124;2024-02-15T16:04:18;16.40;;;10.30;;
33347;SDS011;19707;51.158;17.124;2024-02-15T16:07:20;13.80;;;9.00;;
33347;SDS011;19707;51.158;17.124;2024-02-15T16:10:22;15.60;;;9.00;;
33347;SDS011;19707;51.158;17.124;2024-02-15T16:13:26;15.10;;;9.00;;
33347;SDS011;19707;51.158;17.124;2024-02-15T16:16:28;16.70;;;9.20;;
33347;SDS011;19707;51.158;17.124;2024-02-15T16:19:31;13.00;;;8.40;;
33347;SDS011;19707;51.158;17.124;2024-02-15T16:22:35;15.00;;;8.70;;
33347;SDS011;19707;51.158;17.124;2024-02-15T16:25:39;13.50;;;7.40;;
33347;SDS011;19707;51.158;17.124;2024-02-15T16:28:41;15.40;;;7.30;;
33347;SDS011;19707;51.158;17.124;2024-02-15T16:31:43;14.00;;;7.40;;
33347;SDS011;19707;51.158;17.124;2024-02-15T16:34:48;10.70;;;6.80;;
33347;SDS011;19707;51.158;17.124;2024-02-15T16:37:50;13.10;;;7.20;;
33347;SDS011;19707;51.158;17.124;2024-02-15T16:40:53;10.70;;;6.10;;
33347;SDS011;19707;51.158;17.124;2024-02-15T16:43:55;11.60;;;6.60;;
33347;SDS011;19707;51.158;17.124;2024-02-15T16:46:58;8.90;;;6.60;;
33347;SDS011;19707;51.158;17.124;2024-02-15T16:50:00;8.80;;;5.60;;
33347;SDS011;19707;51.158;17.124;2024-02-15T16:53:03;9.90;;;5.50;;
33347;SDS011;19707;51.158;17.124;2024-02-15T16:56:05;9.90;;;5.00;;
33347;SDS011;19707;51.158;17.124;2024-02-15T16:59:08;11.00;;;6.20;;
33347;SDS011;19707;51.158;17.124;2024-02-15T17:02:11;9.20;;;5.70;;
33347;SDS011;19707;51.158;17.124;2024-02-15T17:05:13;12.70;;;8.50;;
33347;SDS011;19707;51.158;17.124;2024-02-15T17:08:15;16.70;;;8.70;;
33347;SDS011;19707;51.158;17.124;2024-02-15T17:11:18;16.20;;;8.00;;
33347;SDS011;19707;51.158;17.124;2024-02-15T17:14:20;14.90;;;7.10;;
33347;SDS011;19707;51.158;17.124;2024-02-15T17:17:23;13.20;;;8.30;;
33347;SDS011;19707;51.158;17.124;2024-02-15T17:20:25;15.90;;;9.20;;
33347;SDS011;19707;51.158;17.124;2024-02-15T17:23:27;18.00;;;12.20;;
33347;SDS011;19707;51.158;17.124;2024-02-15T17:26:31;21.40;;;14.10;;
33347;SDS011;19707;51.158;17.124;2024-02-15T17:29:33;22.30;;;16.40;;
33347;SDS011;19707;51.158;17.124;2024-02-15T17:32:35;20.70;;;13.20;;
33347;SDS011;19707;51.158;17.124;2024-02-15T17:35:37;17.00;;;10.70;;
33347;SDS011;19707;51.158;17.124;2024-02-15T17:38:39;17.50;;;9.70;;
33347;SDS011;19707;51.158;17.124;2024-02-15T17:41:42;20.60;;;10.50;;
33347;SDS011;19707;51.158;17.124;2024-02-15T17:44:44;20.50;;;12.00;;
33347;SDS011;19707;51.158;17.124;2024-02-15T17:47:47;26.10;;;18.00;;
33347;SDS011;19707;51.158;17.124;2024-02-15T17:50:50;25.50;;;15.60;;
33347;SDS011;19707;51.158;17.124;2024-02-15T17:53:52;30.20;;;17.20;;
33347;SDS011;19707;51.158;17.124;2024-02-15T17:56:55;55.40;;;27.50;;
33347;SDS011;19707;51.158;17.124;2024-02-15T17:59:59;28.90;;;17.70;;
33347;SDS011;19707;51.158;17.124;2024-02-15T18:03:02;23.10;;;13.10;;
33347;SDS011;19707;51.158;17.124;2024-02-15T18:06:06;22.40;;;14.40;;
33347;SDS011;19707;51.158;17.124;2024-02-15T18:09:11;18.60;;;9.80;;
33347;SDS011;19707;51.158;17.124;2024-02-15T18:12:13;15.90;;;10.10;;
33347;SDS011;19707;51.158;17.124;2024-02-15T18:15:18;18.50;;;11.70;;